Time;durP1;ratioP1;P1;durP2;ratioP2;P2;SDS_P1;SDS_P2;PMS_P1;PMS_P2;Temp;Humidity;BMP_temperature;BMP_pressure;BME280_temperature;BME280_humidity;BME280_pressure;Samples;Min_cycle;Max_cycle;Signal;HPM_P1;HPM_P2
2023/10/17 00:01:32;;;;;;;1.60;0.80;;;8.30;99.90;;;;;;7388122;19;20148;-72
2023/10/17 00:06:37;;;;;;;0.97;0.80;;;8.20;99.90;;;;;;7396036;19;20497;-72
2023/10/17 00:09:07;;;;;;;0.60;0.60;;;8.00;99.90;;;;;;7394742;19;20198;-71
2023/10/17 00:14:23;;;;;;;0.90;0.50;;;8.10;99.90;;;;;;7392673;19;20162;-72
2023/10/17 00:16:55;;;;;;;1.13;1.03;;;7.80;99.90;;;;;;7394385;19;20154;-72
2023/10/17 00:19:25;;;;;;;0.60;0.60;;;7.60;99.90;;;;;;7396768;19;20134;-72
2023/10/17 00:21:54;;;;;;;0.40;0.40;;;8.00;99.90;;;;;;7394740;19;20142;-72
2023/10/17 00:24:20;;;;;;;2.57;0.70;;;7.70;99.90;;;;;;7395758;19;20138;-72
2023/10/17 00:26:47;;;;;;;1.23;0.70;;;7.90;99.90;;;;;;7394651;19;20622;-71
2023/10/17 00:29:14;;;;;;;0.80;0.70;;;7.80;99.90;;;;;;7393976;19;20174;-72
2023/10/17 00:31:40;;;;;;;0.73;0.73;;;8.40;99.90;;;;;;7393552;19;20495;-72
2023/10/17 00:34:16;;;;;;;0.87;0.60;;;8.60;99.90;;;;;;7394212;19;20134;-71
2023/10/17 00:36:59;;;;;;;1.67;0.67;;;8.90;99.90;;;;;;7391545;19;20146;-72
2023/10/17 00:39:36;;;;;;;0.60;0.50;;;8.70;99.90;;;;;;7393871;19;20153;-71
2023/10/17 00:42:16;;;;;;;0.40;0.40;;;8.00;99.90;;;;;;7391570;19;20266;-71
2023/10/17 00:44:44;;;;;;;0.80;0.63;;;7.70;99.90;;;;;;7387969;19;20148;-72
2023/10/17 00:47:18;;;;;;;0.77;0.50;;;8.00;99.90;;;;;;7394410;19;20143;-72
2023/10/17 00:49:45;;;;;;;0.77;0.70;;;7.90;99.90;;;;;;7394405;19;20248;-72
2023/10/17 00:52:22;;;;;;;0.63;0.50;;;7.90;99.90;;;;;;7394421;19;20134;-72
2023/10/17 00:54:50;;;;;;;1.10;1.07;;;8.20;99.90;;;;;;7394258;19;20650;-72
2023/10/17 00:57:19;;;;;;;0.60;0.60;;;7.90;99.90;;;;;;7392507;19;20134;-73
2023/10/17 00:59:55;;;;;;;1.23;0.80;;;7.50;99.90;;;;;;7391268;19;20136;-72
2023/10/17 01:02:29;;;;;;;0.57;0.50;;;7.20;99.90;;;;;;7392327;19;20154;-71
2023/10/17 01:04:59;;;;;;;1.07;0.70;;;7.10;99.90;;;;;;7390406;19;20141;-72
2023/10/17 01:07:34;;;;;;;0.60;0.60;;;7.10;99.90;;;;;;7392717;19;20150;-72
2023/10/17 01:10:10;;;;;;;0.73;0.70;;;7.50;99.90;;;;;;7394932;19;20145;-72
2023/10/17 01:12:42;;;;;;;0.90;0.50;;;7.80;99.90;;;;;;7391756;19;20834;-71
2023/10/17 01:15:19;;;;;;;0.67;0.67;;;7.60;99.90;;;;;;7390451;19;20191;-72
2023/10/17 01:17:44;;;;;;;0.67;0.63;;;7.40;99.90;;;;;;7391699;19;20618;-71
2023/10/17 01:20:15;;;;;;;1.37;0.90;;;7.10;99.90;;;;;;7392709;19;20146;-72
2023/10/17 01:22:42;;;;;;;0.80;0.50;;;7.20;99.90;;;;;;7390829;19;20206;-72
2023/10/17 01:25:25;;;;;;;1.33;0.60;;;7.40;99.90;;;;;;7389209;19;20152;-72
2023/10/17 01:27:51;;;;;;;0.83;0.60;;;7.80;99.90;;;;;;7392759;19;20174;-71
2023/10/17 01:30:18;;;;;;;0.60;0.60;;;8.20;99.90;;;;;;7393344;19;20159;-72
2023/10/17 01:32:44;;;;;;;0.50;0.50;;;8.30;99.90;;;;;;7391105;19;20135;-71
2023/10/17 01:35:10;;;;;;;1.47;0.90;;;8.00;99.90;;;;;;7392724;19;20475;-71
2023/10/17 01:37:37;;;;;;;1.40;0.97;;;7.60;99.90;;;;;;7395094;19;20470;-72
2023/10/17 01:40:22;;;;;;;0.70;0.70;;;7.70;99.90;;;;;;7389777;19;20181;-72
2023/10/17 01:42:49;;;;;;;0.73;0.73;;;7.40;99.90;;;;;;7389396;19;20158;-73
2023/10/17 01:45:16;;;;;;;0.73;0.60;;;7.40;99.90;;;;;;7381818;19;20639;-72
2023/10/17 01:47:43;;;;;;;1.27;1.10;;;7.50;99.90;;;;;;7394026;19;20154;-71
2023/10/17 01:50:10;;;;;;;0.83;0.60;;;7.70;99.90;;;;;;7390858;19;20146;-72
2023/10/17 01:52:37;;;;;;;0.67;0.67;;;7.60;99.90;;;;;;7392035;19;20518;-71
2023/10/17 01:55:10;;;;;;;0.70;0.70;;;7.70;99.90;;;;;;7389229;19;20146;-72
2023/10/17 01:57:40;;;;;;;2.03;0.93;;;7.90;99.90;;;;;;7392413;19;20792;-71
2023/10/17 02:00:36;;;;;;;0.77;0.57;;;8.20;99.90;;;;;;7391681;19;20150;-72
2023/10/17 02:03:03;;;;;;;0.60;0.60;;;8.40;99.90;;;;;;7391382;19;20163;-72
2023/10/17 02:05:29;;;;;;;0.97;0.70;;;8.50;99.90;;;;;;7390646;19;20495;-72
2023/10/17 02:07:55;;;;;;;0.40;0.40;;;8.20;99.90;;;;;;7390572;19;20546;-72
2023/10/17 02:10:21;;;;;;;2.00;1.10;;;8.30;99.90;;;;;;7393618;19;20145;-71
2023/10/17 02:12:48;;;;;;;0.70;0.60;;;7.60;99.90;;;;;;7390166;19;20142;-71
2023/10/17 02:15:19;;;;;;;0.43;0.43;;;7.00;99.90;;;;;;7388525;19;20138;-71
2023/10/17 02:17:48;;;;;;;0.63;0.63;;;6.90;99.90;;;;;;7392550;19;20131;-71
2023/10/17 02:21:04;;;;;;;0.90;0.80;;;7.40;99.90;;;;;;7390397;19;20134;-71
2023/10/17 02:23:18;;;;;;;0.73;0.70;;;7.90;99.90;;;;;;7387657;19;20147;-72
2023/10/17 02:25:45;;;;;;;0.73;0.70;;;7.80;99.90;;;;;;7387374;19;20190;-71
2023/10/17 02:28:10;;;;;;;0.63;0.63;;;7.80;99.90;;;;;;7389527;19;20851;-72
2023/10/17 02:30:36;;;;;;;1.23;1.00;;;7.70;99.90;;;;;;7392829;19;20147;-72
2023/10/17 02:33:10;;;;;;;2.67;0.70;;;7.30;99.90;;;;;;7388638;19;20218;-71
2023/10/17 02:35:41;;;;;;;0.83;0.83;;;7.30;99.90;;;;;;7390654;19;20137;-72
2023/10/17 02:38:08;;;;;;;0.50;0.50;;;7.70;99.90;;;;;;7390826;19;20626;-72
2023/10/17 02:40:34;;;;;;;0.73;0.67;;;8.20;99.90;;;;;;7392879;19;20135;-71
2023/10/17 02:43:03;;;;;;;1.20;0.63;;;8.30;99.90;;;;;;7385776;19;20178;-71
2023/10/17 02:45:29;;;;;;;0.40;0.40;;;8.30;99.90;;;;;;7387751;19;20218;-72
2023/10/17 02:48:23;;;;;;;0.77;0.73;;;8.30;99.90;;;;;;7388476;19;20171;-72
2023/10/17 02:51:02;;;;;;;0.80;0.67;;;7.60;99.90;;;;;;7388036;19;20568;-72
2023/10/17 02:53:31;;;;;;;0.73;0.73;;;7.70;99.90;;;;;;7390779;19;20550;-72
2023/10/17 02:55:58;;;;;;;1.03;0.70;;;7.80;99.90;;;;;;7387110;19;20164;-72
2023/10/17 02:58:24;;;;;;;1.13;0.70;;;8.00;99.90;;;;;;7389408;19;20465;-71
2023/10/17 03:00:52;;;;;;;0.67;0.67;;;8.10;99.90;;;;;;7390294;19;20131;-72
2023/10/17 03:03:19;;;;;;;0.97;0.40;;;8.10;99.90;;;;;;7389768;19;20511;-72
2023/10/17 03:05:50;;;;;;;1.07;0.60;;;8.20;99.90;;;;;;7386268;19;20178;-72
2023/10/17 03:08:19;;;;;;;0.77;0.70;;;8.10;99.90;;;;;;7388039;19;20157;-72
2023/10/17 03:10:46;;;;;;;0.70;0.60;;;8.20;99.90;;;;;;7386796;19;20142;-72
2023/10/17 03:13:22;;;;;;;0.60;0.60;;;8.20;99.90;;;;;;7388795;19;20137;-72
2023/10/17 03:15:55;;;;;;;0.80;0.57;;;8.10;99.90;;;;;;7386345;19;20146;-72
2023/10/17 03:18:21;;;;;;;0.67;0.50;;;8.20;99.90;;;;;;7389446;19;20630;-71
2023/10/17 03:20:54;;;;;;;0.40;0.40;;;8.10;99.90;;;;;;7390078;19;20158;-72
2023/10/17 03:23:28;;;;;;;0.70;0.53;;;7.90;99.90;;;;;;7386000;19;20618;-71
2023/10/17 03:26:00;;;;;;;0.80;0.60;;;7.80;99.90;;;;;;7390504;19;20144;-72
2023/10/17 03:28:27;;;;;;;0.40;0.40;;;8.00;99.90;;;;;;7386616;19;20182;-70
2023/10/17 03:30:54;;;;;;;0.70;0.70;;;8.10;99.90;;;;;;7389326;19;20142;-71
2023/10/17 03:33:29;;;;;;;0.73;0.70;;;8.00;99.90;;;;;;7387944;19;20155;-72
2023/10/17 03:38:36;;;;;;;0.70;0.50;;;8.00;99.90;;;;;;7392219;19;20464;-70
2023/10/17 03:41:06;;;;;;;0.50;0.50;;;7.80;99.90;;;;;;7396515;19;20138;-71
2023/10/17 03:43:38;;;;;;;0.50;0.50;;;8.00;99.90;;;;;;7391686;19;20829;-71
2023/10/17 03:46:07;;;;;;;0.70;0.60;;;8.10;99.90;;;;;;7397056;19;20451;-72
2023/10/17 03:48:36;;;;;;;0.90;0.53;;;8.20;99.90;;;;;;7393382;19;20157;-73
2023/10/17 03:53:32;;;;;;;0.77;0.77;;;8.10;99.90;;;;;;7397389;19;20931;-71
2023/10/17 03:56:02;;;;;;;1.23;0.93;;;8.20;99.90;;;;;;7391406;19;20604;-72
2023/10/17 03:58:47;;;;;;;0.67;0.57;;;8.20;99.90;;;;;;7396977;19;20195;-71
2023/10/17 04:01:18;;;;;;;0.40;0.40;;;8.20;99.90;;;;;;7397773;19;20210;-70
2023/10/17 04:03:45;;;;;;;0.70;0.70;;;8.30;99.90;;;;;;7392656;19;20142;-71
2023/10/17 04:08:48;;;;;;;0.90;0.90;;;8.20;99.90;;;;;;7397629;19;20142;-72
2023/10/17 04:11:18;;;;;;;0.60;0.60;;;8.30;99.90;;;;;;7396627;19;20164;-72
2023/10/17 04:13:52;;;;;;;0.60;0.60;;;8.40;99.90;;;;;;7394000;19;20195;-72
2023/10/17 04:16:22;;;;;;;0.60;0.60;;;8.20;99.90;;;;;;7394315;19;20169;-72
2023/10/17 04:19:00;;;;;;;0.60;0.60;;;8.00;99.90;;;;;;7391189;19;20145;-72
2023/10/17 04:21:36;;;;;;;0.50;0.50;;;8.30;99.90;;;;;;7394911;19;20572;-71
2023/10/17 04:24:05;;;;;;;0.93;0.70;;;8.50;99.90;;;;;;7392619;19;20130;-71
2023/10/17 04:26:34;;;;;;;0.70;0.67;;;8.40;99.90;;;;;;7392277;19;20164;-71
2023/10/17 04:29:11;;;;;;;0.60;0.60;;;8.50;99.90;;;;;;7394986;19;20499;-71
2023/10/17 04:31:37;;;;;;;0.73;0.73;;;8.40;99.90;;;;;;7391357;19;21301;-71
2023/10/17 04:34:06;;;;;;;0.83;0.70;;;8.50;99.90;;;;;;7394185;19;20159;-71
2023/10/17 04:36:37;;;;;;;1.00;0.87;;;8.50;99.90;;;;;;7392565;19;20484;-71
2023/10/17 04:39:18;;;;;;;0.57;0.40;;;8.40;99.90;;;;;;7395648;19;20226;-71
2023/10/17 04:44:18;;;;;;;1.00;0.80;;;7.30;99.90;;;;;;7392802;19;20308;-72
2023/10/17 04:47:45;;;;;;;1.27;0.80;;;7.30;99.90;;;;;;7397661;19;20130;-71
2023/10/17 04:49:39;;;;;;;0.87;0.77;;;7.30;99.90;;;;;;7391928;19;20146;-72
2023/10/17 04:57:16;;;;;;;0.77;0.73;;;7.00;99.90;;;;;;7391090;19;20150;-71
2023/10/17 06:18:59;;;;;;;1.93;1.00;;;8.60;99.90;;;;;;7389845;19;20182;-73
2023/10/17 06:24:45;;;;;;;1.23;0.93;;;7.90;99.90;;;;;;7387717;19;20138;-75
2023/10/17 06:27:43;;;;;;;1.37;0.97;;;8.20;99.90;;;;;;7391257;19;20571;-72
2023/10/17 06:32:48;;;;;;;1.27;1.00;;;8.60;99.90;;;;;;7392023;19;20134;-72
2023/10/17 06:35:20;;;;;;;2.40;1.57;;;8.70;99.90;;;;;;7390909;19;20559;-72
2023/10/17 06:37:49;;;;;;;1.07;0.80;;;8.80;99.90;;;;;;7388837;19;20577;-74
2023/10/17 06:40:17;;;;;;;0.80;0.80;;;8.70;99.90;;;;;;7391924;19;20262;-74
2023/10/17 06:42:50;;;;;;;2.20;1.33;;;8.60;99.90;;;;;;7387262;19;20178;-73
2023/10/17 06:45:19;;;;;;;1.20;0.90;;;8.70;99.90;;;;;;7388851;19;20163;-73
2023/10/17 06:47:49;;;;;;;1.10;0.93;;;8.30;99.90;;;;;;7392155;19;20663;-73
2023/10/17 06:55:21;;;;;;;0.80;0.80;;;8.90;99.90;;;;;;7390395;19;20150;-74
2023/10/17 06:57:50;;;;;;;1.23;1.13;;;9.00;99.90;;;;;;7390453;19;20150;-72
2023/10/17 07:00:42;;;;;;;1.10;1.00;;;8.60;99.90;;;;;;7389683;19;20134;-73
2023/10/17 07:03:09;;;;;;;0.70;0.70;;;8.50;99.90;;;;;;7390188;19;20600;-74
2023/10/17 07:05:36;;;;;;;1.10;1.00;;;8.80;99.90;;;;;;7385424;19;20178;-72
2023/10/17 07:08:03;;;;;;;0.87;0.63;;;9.00;99.90;;;;;;7393005;19;20145;-73
2023/10/17 07:13:39;;;;;;;1.23;1.13;;;9.10;99.90;;;;;;7397710;19;20135;-73
2023/10/17 07:16:11;;;;;;;1.23;0.83;;;9.00;99.90;;;;;;7395654;19;20552;-72
2023/10/17 07:18:44;;;;;;;1.30;1.03;;;8.10;99.90;;;;;;7398645;19;20167;-73
2023/10/17 07:23:48;;;;;;;1.60;1.17;;;8.80;99.90;;;;;;7398997;19;20158;-72
2023/10/17 07:26:17;;;;;;;1.80;1.30;;;8.90;99.90;;;;;;7397199;19;20149;-72
2023/10/17 07:28:44;;;;;;;2.20;1.73;;;9.10;99.90;;;;;;7398369;19;21351;-72
2023/10/17 07:31:11;;;;;;;1.40;1.30;;;9.20;99.90;;;;;;7398181;19;20196;-72
2023/10/17 07:36:32;;;;;;;2.10;1.20;;;9.40;99.90;;;;;;7396237;19;20502;-73
2023/10/17 07:38:57;;;;;;;2.90;1.10;;;9.40;99.90;;;;;;7396031;19;20198;-73
2023/10/17 07:41:52;;;;;;;1.40;1.30;;;8.90;99.90;;;;;;7396969;19;20629;-73
2023/10/17 07:44:19;;;;;;;1.43;1.33;;;9.10;99.90;;;;;;7394385;19;20153;-73
2023/10/17 07:46:50;;;;;;;1.10;1.00;;;9.30;99.90;;;;;;7397209;19;20251;-73
2023/10/17 07:49:25;;;;;;;2.17;1.17;;;9.40;99.90;;;;;;7397580;19;20142;-73
2023/10/17 07:51:58;;;;;;;1.57;1.20;;;9.40;99.90;;;;;;7397255;19;20134;-73
2023/10/17 07:54:28;;;;;;;1.53;1.10;;;9.60;99.90;;;;;;7395566;19;20487;-72
2023/10/17 07:56:58;;;;;;;1.37;1.00;;;9.70;99.90;;;;;;7397179;19;20145;-74
2023/10/17 07:59:34;;;;;;;1.67;0.90;;;9.80;99.90;;;;;;7396806;19;20138;-74
2023/10/17 08:02:13;;;;;;;1.73;1.10;;;9.90;99.90;;;;;;7394901;19;20182;-72
2023/10/17 08:04:38;;;;;;;2.50;1.40;;;9.90;99.90;;;;;;7397665;19;20170;-72
2023/10/17 08:07:04;;;;;;;1.13;1.00;;;10.00;99.90;;;;;;7394143;19;20178;-73
2023/10/17 08:09:36;;;;;;;2.27;1.30;;;9.90;99.90;;;;;;7395162;19;20532;-72
2023/10/17 08:12:05;;;;;;;1.30;1.20;;;10.00;99.90;;;;;;7396833;19;20134;-72
2023/10/17 08:14:40;;;;;;;1.20;1.10;;;10.10;99.90;;;;;;7395174;19;20158;-73
2023/10/17 08:17:08;;;;;;;2.23;1.57;;;10.00;99.90;;;;;;7393274;19;20311;-74
2023/10/17 08:22:19;;;;;;;1.30;1.20;;;10.00;99.90;;;;;;7394925;19;20219;-73
2023/10/17 08:24:51;;;;;;;1.20;0.97;;;10.20;99.90;;;;;;7392112;19;20138;-74
2023/10/17 08:27:44;;;;;;;1.87;1.57;;;10.40;99.90;;;;;;7397232;19;20494;-73
2023/10/17 08:30:23;;;;;;;2.30;1.27;;;10.50;99.90;;;;;;7392386;19;20146;-73
2023/10/17 08:35:38;;;;;;;3.13;1.80;;;10.40;99.90;;;;;;7396038;19;20139;-73
2023/10/17 08:38:09;;;;;;;1.80;1.53;;;10.50;99.90;;;;;;7395009;19;20137;-73
2023/10/17 08:43:10;;;;;;;2.27;1.87;;;10.20;99.90;;;;;;7395269;19;20608;-74
2023/10/17 08:45:39;;;;;;;3.37;2.07;;;10.40;99.90;;;;;;7391398;19;20142;-74
2023/10/17 08:48:11;;;;;;;2.73;1.83;;;10.50;99.90;;;;;;7396636;19;20227;-73
2023/10/17 08:50:43;;;;;;;1.80;1.47;;;10.50;99.90;;;;;;7396587;19;20150;-74
2023/10/17 08:55:44;;;;;;;1.50;0.93;;;10.90;99.90;;;;;;7395690;19;20189;-72
2023/10/17 08:58:10;;;;;;;2.50;1.80;;;10.60;99.90;;;;;;7393553;19;20166;-74
2023/10/17 09:03:37;;;;;;;2.10;1.70;;;10.00;99.90;;;;;;7392689;19;20207;-75
2023/10/17 09:11:34;;;;;;;2.50;1.77;;;10.30;99.90;;;;;;7395622;19;20153;-73
2023/10/17 09:14:17;;;;;;;2.63;1.80;;;10.70;99.90;;;;;;7393973;19;20176;-74
2023/10/17 09:19:51;;;;;;;2.07;1.70;;;11.00;99.90;;;;;;7395245;19;20142;-76
2023/10/17 09:22:37;;;;;;;3.20;2.17;;;11.10;99.90;;;;;;7396261;19;20941;-73
2023/10/17 09:25:15;;;;;;;1.67;1.57;;;11.10;99.90;;;;;;7390177;19;20139;-75
2023/10/17 09:27:42;;;;;;;2.47;2.00;;;11.00;99.90;;;;;;7393002;19;20507;-74
2023/10/17 09:30:11;;;;;;;1.57;1.40;;;10.90;99.90;;;;;;7392338;19;20147;-74
2023/10/17 09:32:40;;;;;;;2.17;1.87;;;11.10;99.90;;;;;;7393548;19;20235;-75
2023/10/17 09:35:15;;;;;;;3.70;2.17;;;11.30;99.90;;;;;;7394380;19;20214;-74
2023/10/17 09:37:42;;;;;;;3.47;2.00;;;11.20;99.90;;;;;;7392199;19;20164;-74
2023/10/17 09:40:12;;;;;;;2.00;1.73;;;11.20;99.90;;;;;;7393145;19;20146;-73
2023/10/17 09:42:45;;;;;;;1.83;1.60;;;11.20;99.90;;;;;;7390887;19;20158;-74
2023/10/17 09:45:15;;;;;;;2.00;1.80;;;11.30;99.90;;;;;;7390485;19;20133;-76
2023/10/17 09:47:46;;;;;;;2.50;2.03;;;11.40;99.90;;;;;;7391970;19;20238;-74
2023/10/17 09:50:16;;;;;;;2.37;1.77;;;11.30;99.90;;;;;;7393322;19;20167;-75
2023/10/17 09:52:46;;;;;;;2.07;1.60;;;11.40;99.90;;;;;;7390115;19;20564;-75
2023/10/17 09:55:15;;;;;;;2.53;1.87;;;11.40;99.90;;;;;;7396660;19;20126;-74
2023/10/17 09:57:50;;;;;;;3.03;2.30;;;11.40;99.90;;;;;;7394723;19;20146;-74
2023/10/17 10:00:23;;;;;;;2.67;2.00;;;11.50;99.90;;;;;;7393741;19;20165;-73
2023/10/17 10:02:51;;;;;;;3.27;1.80;;;11.50;99.90;;;;;;7393631;19;20137;-74
2023/10/17 10:05:29;;;;;;;2.50;1.87;;;11.40;99.90;;;;;;7388869;19;20199;-74
2023/10/17 10:08:34;;;;;;;2.10;1.70;;;11.50;99.90;;;;;;7394766;19;20170;-74
2023/10/17 10:11:01;;;;;;;3.40;2.47;;;11.60;99.90;;;;;;7390080;19;20210;-74
2023/10/17 10:13:27;;;;;;;2.00;1.80;;;11.60;99.90;;;;;;7392506;19;20143;-74
2023/10/17 10:16:04;;;;;;;2.43;1.87;;;11.70;99.90;;;;;;7390726;19;20149;-74
2023/10/17 10:18:35;;;;;;;2.30;1.80;;;11.60;99.90;;;;;;7391367;19;20134;-75
2023/10/17 10:21:08;;;;;;;2.30;1.80;;;11.80;99.90;;;;;;7392731;19;20206;-75
2023/10/17 10:23:41;;;;;;;2.45;1.95;;;11.80;99.90;;;;;;7390718;19;20589;-75
2023/10/17 10:26:14;;;;;;;4.07;2.43;;;11.80;99.90;;;;;;7392736;19;20139;-74
2023/10/17 10:28:43;;;;;;;2.73;2.00;;;11.80;99.90;;;;;;7390790;19;20155;-74
2023/10/17 10:31:21;;;;;;;3.60;2.50;;;11.90;99.90;;;;;;7391700;19;20155;-75
2023/10/17 10:33:51;;;;;;;3.07;2.10;;;11.90;99.90;;;;;;7390973;19;20146;-74
2023/10/17 10:36:18;;;;;;;3.40;2.60;;;11.80;99.90;;;;;;7389587;19;20142;-75
2023/10/17 10:38:45;;;;;;;3.77;2.67;;;11.60;99.90;;;;;;7395135;19;20138;-75
2023/10/17 10:41:18;;;;;;;2.83;2.30;;;11.70;99.90;;;;;;7389478;19;20139;-74
2023/10/17 10:43:44;;;;;;;3.87;2.63;;;11.70;99.90;;;;;;7392305;19;20146;-74
2023/10/17 10:46:17;;;;;;;3.17;1.97;;;11.70;99.90;;;;;;7387914;19;20142;-74
2023/10/17 10:48:56;;;;;;;3.30;2.60;;;11.80;99.90;;;;;;7391230;19;20134;-74
2023/10/17 10:51:24;;;;;;;2.60;2.27;;;11.80;99.90;;;;;;7391463;19;20512;-75
2023/10/17 10:53:56;;;;;;;3.60;1.93;;;11.60;99.90;;;;;;7391555;19;20143;-75
2023/10/17 10:56:26;;;;;;;2.20;2.00;;;11.80;99.90;;;;;;7389331;19;20151;-75
2023/10/17 10:58:57;;;;;;;2.07;1.83;;;11.80;99.90;;;;;;7393056;19;20146;-73
2023/10/17 11:01:25;;;;;;;2.87;2.20;;;11.70;99.90;;;;;;7395135;19;20162;-74
2023/10/17 11:03:52;;;;;;;3.17;2.57;;;11.80;99.90;;;;;;7392095;19;20142;-74
2023/10/17 11:06:27;;;;;;;2.70;1.87;;;11.80;99.90;;;;;;7388665;19;20902;-74
2023/10/17 11:08:56;;;;;;;2.47;1.83;;;12.00;99.90;;;;;;7391942;19;20138;-74
2023/10/17 11:11:22;;;;;;;2.10;1.90;;;12.00;99.90;;;;;;7392452;19;20214;-75
2023/10/17 11:13:53;;;;;;;4.60;2.30;;;12.00;99.90;;;;;;7386778;19;20178;-74
2023/10/17 11:16:21;;;;;;;2.30;1.90;;;12.00;99.90;;;;;;7389995;19;20217;-74
2023/10/17 11:18:48;;;;;;;2.67;1.80;;;12.00;99.90;;;;;;7388769;19;20134;-75
2023/10/17 11:21:21;;;;;;;2.17;1.98;;;12.20;99.90;;;;;;7391140;19;20157;-74
2023/10/17 11:23:59;;;;;;;1.90;1.63;;;12.20;99.90;;;;;;7390797;19;20134;-76
2023/10/17 11:26:39;;;;;;;2.77;2.00;;;12.20;99.90;;;;;;7390358;19;20566;-74
2023/10/17 11:29:07;;;;;;;1.67;1.55;;;12.20;99.90;;;;;;7389425;19;20238;-74
2023/10/17 11:31:34;;;;;;;2.83;1.83;;;12.20;99.90;;;;;;7390122;19;20221;-75
2023/10/17 11:34:04;;;;;;;2.17;1.67;;;12.20;99.90;;;;;;7391453;19;20164;-74
2023/10/17 11:36:37;;;;;;;4.72;2.70;;;12.20;99.90;;;;;;7389766;19;20150;-74
2023/10/17 11:39:06;;;;;;;2.97;2.43;;;12.40;99.90;;;;;;7389826;19;20252;-75
2023/10/17 11:41:45;;;;;;;3.70;2.17;;;12.60;99.90;;;;;;7388484;19;20883;-75
2023/10/17 11:44:13;;;;;;;2.42;2.13;;;12.60;99.90;;;;;;7388208;19;20155;-76
2023/10/17 11:46:39;;;;;;;3.33;2.25;;;12.80;99.90;;;;;;7388887;19;20135;-74
2023/10/17 11:49:21;;;;;;;3.20;2.50;;;12.90;99.90;;;;;;7389823;19;20611;-74
2023/10/17 11:52:01;;;;;;;3.30;2.10;;;12.80;99.90;;;;;;7388259;19;20159;-77
2023/10/17 11:54:27;;;;;;;2.80;2.15;;;12.80;99.90;;;;;;7389720;19;20312;-75
2023/10/17 11:56:56;;;;;;;3.05;2.30;;;12.70;99.90;;;;;;7387957;19;20158;-74
2023/10/17 11:59:22;;;;;;;2.83;2.13;;;12.80;99.90;;;;;;7394199;19;20603;-74
2023/10/17 12:01:52;;;;;;;2.20;2.00;;;12.80;99.90;;;;;;7398592;19;20533;-75
2023/10/17 12:04:19;;;;;;;3.55;2.50;;;12.50;99.90;;;;;;7393796;19;20130;-74
2023/10/17 12:06:48;;;;;;;3.72;2.25;;;12.60;99.90;;;;;;7395346;19;20538;-74
2023/10/17 12:09:17;;;;;;;2.03;1.70;;;12.80;99.90;;;;;;7395309;19;20222;-74
2023/10/17 12:11:47;;;;;;;3.27;2.00;;;12.90;99.90;;;;;;7398439;19;20143;-75
2023/10/17 12:14:20;;;;;;;2.30;1.60;;;12.70;99.90;;;;;;7398989;19;20153;-74
2023/10/17 12:16:53;;;;;;;3.23;2.33;;;12.80;99.90;;;;;;7396391;19;20161;-75
2023/10/17 12:19:26;;;;;;;3.58;2.15;;;13.10;99.90;;;;;;7394529;19;20458;-75
2023/10/17 12:21:53;;;;;;;2.83;2.20;;;13.20;99.90;;;;;;7393343;19;20158;-75
2023/10/17 12:24:29;;;;;;;2.53;2.00;;;13.40;99.90;;;;;;7393677;19;20142;-75
2023/10/17 12:26:56;;;;;;;3.10;2.15;;;13.60;99.90;;;;;;7395399;19;20842;-75
2023/10/17 12:29:28;;;;;;;2.40;2.15;;;13.60;99.90;;;;;;7394043;19;20150;-75
2023/10/17 12:31:57;;;;;;;3.65;2.65;;;13.70;99.90;;;;;;7396055;19;20134;-76
2023/10/17 12:34:23;;;;;;;2.38;1.83;;;13.50;99.90;;;;;;7394776;19;20146;-75
2023/10/17 12:36:49;;;;;;;5.07;2.70;;;13.40;99.90;;;;;;7396377;19;20198;-75
2023/10/17 12:39:16;;;;;;;2.33;2.13;;;13.40;99.90;;;;;;7396136;19;21038;-75
2023/10/17 12:41:44;;;;;;;2.05;1.73;;;13.20;99.90;;;;;;7394324;19;20155;-74
2023/10/17 12:44:09;;;;;;;2.97;2.13;;;13.10;99.90;;;;;;7394787;19;20142;-75
2023/10/17 12:46:35;;;;;;;3.05;2.22;;;12.80;99.90;;;;;;7395872;19;20517;-75
2023/10/17 12:49:01;;;;;;;2.42;2.20;;;12.80;99.90;;;;;;7393008;19;20151;-75
2023/10/17 12:51:30;;;;;;;15.27;7.78;;;12.80;99.90;;;;;;7396280;19;20576;-74
2023/10/17 12:53:56;;;;;;;2.97;2.00;;;13.10;99.90;;;;;;7395190;19;20155;-74
2023/10/17 12:56:22;;;;;;;2.15;1.85;;;13.20;99.90;;;;;;7395205;19;20131;-74
2023/10/17 12:58:47;;;;;;;4.38;2.72;;;13.20;99.90;;;;;;7394569;19;20135;-74
2023/10/17 13:01:13;;;;;;;6.07;3.67;;;13.20;99.90;;;;;;7395044;19;20170;-74
2023/10/17 13:03:40;;;;;;;3.15;2.25;;;13.30;99.90;;;;;;7395276;19;20138;-75
2023/10/17 13:06:06;;;;;;;3.45;2.72;;;13.30;99.90;;;;;;7392020;19;20167;-75
2023/10/17 13:08:32;;;;;;;12.90;8.45;;;13.30;99.90;;;;;;7394117;19;20146;-74
2023/10/17 13:10:59;;;;;;;4.85;3.00;;;13.20;99.90;;;;;;7391451;19;20138;-75
2023/10/17 13:13:25;;;;;;;2.50;1.67;;;13.30;99.90;;;;;;7393320;19;20146;-74
2023/10/17 13:15:54;;;;;;;2.75;2.55;;;13.40;99.90;;;;;;7390431;19;20869;-73
2023/10/17 13:18:20;;;;;;;2.47;2.15;;;13.40;99.90;;;;;;7394886;19;20217;-74
2023/10/17 13:20:48;;;;;;;3.38;2.20;;;13.40;99.90;;;;;;7393930;19;20151;-74
2023/10/17 13:23:18;;;;;;;2.97;2.45;;;13.50;99.90;;;;;;7394235;19;20143;-74
2023/10/17 13:25:44;;;;;;;2.50;2.10;;;13.40;99.90;;;;;;7391624;19;20154;-74
2023/10/17 13:28:10;;;;;;;2.33;2.13;;;13.40;99.90;;;;;;7390450;19;20146;-74
2023/10/17 13:30:36;;;;;;;4.45;2.70;;;13.30;99.90;;;;;;7394880;19;20143;-74
2023/10/17 13:33:03;;;;;;;4.10;2.20;;;13.20;99.90;;;;;;7391094;19;20146;-74
2023/10/17 13:35:30;;;;;;;2.80;2.38;;;13.30;99.90;;;;;;7392231;19;20193;-74
2023/10/17 13:37:58;;;;;;;3.08;2.03;;;13.40;99.90;;;;;;7390998;19;20150;-75
2023/10/17 13:40:25;;;;;;;2.53;2.10;;;13.40;99.90;;;;;;7392739;19;20523;-75
2023/10/17 13:42:55;;;;;;;2.35;1.95;;;13.60;99.90;;;;;;7391965;19;20167;-75
2023/10/17 13:45:22;;;;;;;1.80;1.70;;;13.60;99.90;;;;;;7391043;19;20142;-74
2023/10/17 13:47:57;;;;;;;4.40;2.55;;;13.50;99.90;;;;;;7390090;19;20138;-73
2023/10/17 13:50:23;;;;;;;2.53;2.00;;;13.60;99.90;;;;;;7390830;19;20149;-74
2023/10/17 13:52:52;;;;;;;2.03;1.83;;;13.60;99.90;;;;;;7391679;19;20158;-74
2023/10/17 13:55:25;;;;;;;3.28;2.30;;;13.60;99.90;;;;;;7392017;19;20158;-74
2023/10/17 13:58:01;;;;;;;2.33;1.95;;;13.60;99.90;;;;;;7392746;19;20131;-74
2023/10/17 14:00:42;;;;;;;2.45;1.88;;;13.50;99.90;;;;;;7392270;19;20528;-75
2023/10/17 14:03:12;;;;;;;2.67;2.15;;;13.50;99.90;;;;;;7394268;19;20139;-74
2023/10/17 14:05:47;;;;;;;4.72;2.55;;;13.40;99.90;;;;;;7387753;19;20151;-75
2023/10/17 14:08:13;;;;;;;5.28;2.80;;;13.40;99.90;;;;;;7389471;19;20130;-74
2023/10/17 14:10:43;;;;;;;2.80;2.22;;;13.60;99.90;;;;;;7388922;19;20150;-74
2023/10/17 14:13:12;;;;;;;3.47;2.22;;;13.70;99.90;;;;;;7390585;19;20137;-75
2023/10/17 14:15:41;;;;;;;3.17;2.38;;;13.80;99.90;;;;;;7392167;19;20442;-74
2023/10/17 14:18:13;;;;;;;4.10;2.42;;;13.80;99.90;;;;;;7393391;19;20569;-74
2023/10/17 14:26:15;;;;;;;6.35;4.47;;;13.70;99.90;;;;;;7394113;19;20198;-74
2023/10/17 14:28:41;;;;;;;2.67;2.38;;;13.80;99.90;;;;;;7392428;19;20138;-75
2023/10/17 14:31:09;;;;;;;3.05;2.08;;;13.70;99.90;;;;;;7391145;19;20734;-75
2023/10/17 14:33:35;;;;;;;2.60;1.83;;;13.60;99.90;;;;;;7388559;19;20491;-75
2023/10/17 14:36:10;;;;;;;2.10;1.90;;;13.70;99.90;;;;;;7391411;19;20139;-76
2023/10/17 14:38:37;;;;;;;3.50;3.00;;;13.80;99.90;;;;;;7391672;19;20414;-73
2023/10/17 14:41:10;;;;;;;4.78;2.63;;;13.80;99.90;;;;;;7389471;19;20154;-74
2023/10/17 14:43:36;;;;;;;2.47;2.10;;;13.70;99.90;;;;;;7385909;19;20150;-74
2023/10/17 14:46:02;;;;;;;2.40;2.10;;;13.70;99.90;;;;;;7387886;19;20157;-74
2023/10/17 14:48:30;;;;;;;2.45;2.03;;;13.90;99.90;;;;;;7391836;19;20618;-74
2023/10/17 14:50:56;;;;;;;2.30;1.90;;;13.60;99.90;;;;;;7393462;19;20707;-74
2023/10/17 14:53:23;;;;;;;3.00;2.08;;;13.60;99.90;;;;;;7391514;19;20131;-74
2023/10/17 14:55:57;;;;;;;2.97;2.10;;;13.70;99.90;;;;;;7388614;19;20620;-75
2023/10/17 14:58:23;;;;;;;2.30;1.90;;;13.70;99.90;;;;;;7389552;19;20138;-75
2023/10/17 15:00:49;;;;;;;2.40;1.83;;;13.80;99.90;;;;;;7388898;19;20146;-75
2023/10/17 15:03:14;;;;;;;2.00;1.80;;;13.90;99.90;;;;;;7390928;19;20158;-74
2023/10/17 15:05:41;;;;;;;3.60;2.25;;;13.80;99.90;;;;;;7388939;19;20161;-75
2023/10/17 15:08:08;;;;;;;3.03;1.88;;;13.80;99.90;;;;;;7389755;19;20162;-74
2023/10/17 15:10:35;;;;;;;2.33;2.13;;;13.90;99.90;;;;;;7390690;19;20135;-74
2023/10/17 15:13:00;;;;;;;2.63;2.30;;;13.80;99.90;;;;;;7388252;19;20153;-74
2023/10/17 15:15:26;;;;;;;2.80;2.05;;;13.90;99.90;;;;;;7387111;19;20151;-74
2023/10/17 15:17:52;;;;;;;2.53;1.95;;;14.00;99.90;;;;;;7387645;19;20146;-74
2023/10/17 15:20:17;;;;;;;3.78;2.38;;;13.90;99.90;;;;;;7389059;19;20201;-73
2023/10/17 15:22:44;;;;;;;1.83;1.70;;;13.90;99.90;;;;;;7387081;19;20227;-73
2023/10/17 15:25:15;;;;;;;3.45;2.13;;;13.80;99.90;;;;;;7383748;19;20126;-73
2023/10/17 15:27:43;;;;;;;1.90;1.67;;;13.80;99.90;;;;;;7386982;19;20222;-73
2023/10/17 15:30:14;;;;;;;2.13;1.80;;;13.80;99.90;;;;;;7390322;19;20600;-72
2023/10/17 15:32:41;;;;;;;2.10;1.90;;;13.80;99.90;;;;;;7386864;19;20966;-74
2023/10/17 15:35:14;;;;;;;2.35;2.15;;;13.70;99.90;;;;;;7394832;19;20428;-74